sensor_id;sensor_type;location;lat;lon;timestamp;P1;durP1;ratioP1;P2;durP2;ratioP2
15230;SDS011;32569;51.762;8.564;2023-07-22T00:00:49;14.17;;;11.73;;
15230;SDS011;32569;51.762;8.564;2023-07-22T00:03:15;13.60;;;11.67;;
15230;SDS011;32569;51.762;8.564;2023-07-22T00:05:42;14.33;;;11.40;;
15230;SDS011;32569;51.762;8.564;2023-07-22T00:08:09;12.53;;;11.23;;
15230;SDS011;32569;51.762;8.564;2023-07-22T00:10:37;15.10;;;11.33;;
15230;SDS011;32569;51.762;8.564;2023-07-22T00:13:06;13.47;;;11.43;;
15230;SDS011;32569;51.762;8.564;2023-07-22T00:15:35;12.20;;;11.00;;
15230;SDS011;32569;51.762;8.564;2023-07-22T00:18:01;13.40;;;11.03;;
15230;SDS011;32569;51.762;8.564;2023-07-22T00:20:28;12.20;;;10.53;;
15230;SDS011;32569;51.762;8.564;2023-07-22T00:22:55;12.53;;;11.07;;
15230;SDS011;32569;51.762;8.564;2023-07-22T00:25:21;14.53;;;11.33;;
15230;SDS011;32569;51.762;8.564;2023-07-22T00:27:48;12.53;;;11.23;;
15230;SDS011;32569;51.762;8.564;2023-07-22T00:30:15;13.93;;;10.93;;
15230;SDS011;32569;51.762;8.564;2023-07-22T00:32:43;12.60;;;11.27;;
15230;SDS011;32569;51.762;8.564;2023-07-22T00:35:10;14.17;;;11.40;;
15230;SDS011;32569;51.762;8.564;2023-07-22T00:37:37;14.60;;;11.57;;
15230;SDS011;32569;51.762;8.564;2023-07-22T00:40:04;14.00;;;12.43;;
15230;SDS011;32569;51.762;8.564;2023-07-22T00:42:36;14.30;;;12.10;;
15230;SDS011;32569;51.762;8.564;2023-07-22T00:45:04;12.00;;;10.60;;
15230;SDS011;32569;51.762;8.564;2023-07-22T00:47:32;15.37;;;12.50;;
15230;SDS011;32569;51.762;8.564;2023-07-22T00:50:00;14.10;;;11.70;;
15230;SDS011;32569;51.762;8.564;2023-07-22T00:52:28;15.67;;;11.57;;
15230;SDS011;32569;51.762;8.564;2023-07-22T00:54:55;13.87;;;11.83;;
15230;SDS011;32569;51.762;8.564;2023-07-22T00:57:22;12.90;;;11.50;;
15230;SDS011;32569;51.762;8.564;2023-07-22T00:59:49;13.90;;;11.07;;
15230;SDS011;32569;51.762;8.564;2023-07-22T01:02:16;13.00;;;10.77;;
15230;SDS011;32569;51.762;8.564;2023-07-22T01:04:44;13.37;;;10.73;;
15230;SDS011;32569;51.762;8.564;2023-07-22T01:07:12;12.40;;;10.63;;
15230;SDS011;32569;51.762;8.564;2023-07-22T01:09:39;14.00;;;11.73;;
15230;SDS011;32569;51.762;8.564;2023-07-22T01:12:08;12.23;;;10.00;;
15230;SDS011;32569;51.762;8.564;2023-07-22T01:14:36;12.40;;;10.53;;
15230;SDS011;32569;51.762;8.564;2023-07-22T01:17:04;13.13;;;11.50;;
15230;SDS011;32569;51.762;8.564;2023-07-22T01:19:32;12.63;;;11.30;;
15230;SDS011;32569;51.762;8.564;2023-07-22T01:21:59;12.63;;;10.60;;
15230;SDS011;32569;51.762;8.564;2023-07-22T01:24:28;12.27;;;10.43;;
15230;SDS011;32569;51.762;8.564;2023-07-22T01:26:55;15.20;;;11.47;;
15230;SDS011;32569;51.762;8.564;2023-07-22T01:29:22;11.67;;;10.47;;
15230;SDS011;32569;51.762;8.564;2023-07-22T01:31:50;13.03;;;10.80;;
15230;SDS011;32569;51.762;8.564;2023-07-22T01:34:18;12.50;;;10.60;;
15230;SDS011;32569;51.762;8.564;2023-07-22T01:36:45;15.03;;;11.17;;
15230;SDS011;32569;51.762;8.564;2023-07-22T01:39:13;12.80;;;10.93;;
15230;SDS011;32569;51.762;8.564;2023-07-22T01:41:41;12.27;;;10.37;;
15230;SDS011;32569;51.762;8.564;2023-07-22T01:44:08;12.50;;;10.67;;
15230;SDS011;32569;51.762;8.564;2023-07-22T01:46:35;12.17;;;10.07;;
15230;SDS011;32569;51.762;8.564;2023-07-22T01:49:03;11.20;;;9.87;;
15230;SDS011;32569;51.762;8.564;2023-07-22T01:51:31;15.27;;;10.57;;
15230;SDS011;32569;51.762;8.564;2023-07-22T01:53:58;12.83;;;10.53;;
15230;SDS011;32569;51.762;8.564;2023-07-22T01:56:26;13.47;;;10.83;;
15230;SDS011;32569;51.762;8.564;2023-07-22T01:58:54;12.90;;;10.60;;
15230;SDS011;32569;51.762;8.564;2023-07-22T02:01:20;14.40;;;10.50;;
15230;SDS011;32569;51.762;8.564;2023-07-22T02:03:47;13.47;;;10.00;;
15230;SDS011;32569;51.762;8.564;2023-07-22T02:06:14;11.93;;;10.37;;
15230;SDS011;32569;51.762;8.564;2023-07-22T02:08:40;12.37;;;9.93;;
15230;SDS011;32569;51.762;8.564;2023-07-22T02:11:07;13.17;;;10.20;;
15230;SDS011;32569;51.762;8.564;2023-07-22T02:13:35;12.77;;;9.50;;
15230;SDS011;32569;51.762;8.564;2023-07-22T02:16:03;11.40;;;9.30;;
15230;SDS011;32569;51.762;8.564;2023-07-22T02:18:30;10.93;;;9.57;;
15230;SDS011;32569;51.762;8.564;2023-07-22T02:20:57;13.53;;;9.90;;
15230;SDS011;32569;51.762;8.564;2023-07-22T02:23:24;12.70;;;9.53;;
15230;SDS011;32569;51.762;8.564;2023-07-22T02:25:51;12.50;;;9.67;;
15230;SDS011;32569;51.762;8.564;2023-07-22T02:28:18;12.53;;;10.00;;
15230;SDS011;32569;51.762;8.564;2023-07-22T02:30:46;11.23;;;9.37;;
15230;SDS011;32569;51.762;8.564;2023-07-22T02:33:14;11.30;;;9.70;;
15230;SDS011;32569;51.762;8.564;2023-07-22T02:35:41;12.37;;;9.20;;
15230;SDS011;32569;51.762;8.564;2023-07-22T02:38:08;11.63;;;9.67;;
15230;SDS011;32569;51.762;8.564;2023-07-22T02:40:35;11.97;;;9.23;;
15230;SDS011;32569;51.762;8.564;2023-07-22T02:43:02;9.73;;;8.57;;
15230;SDS011;32569;51.762;8.564;2023-07-22T02:45:30;12.97;;;9.20;;
15230;SDS011;32569;51.762;8.564;2023-07-22T02:47:56;11.10;;;10.00;;
15230;SDS011;32569;51.762;8.564;2023-07-22T02:50:24;12.37;;;9.50;;
15230;SDS011;32569;51.762;8.564;2023-07-22T02:52:51;12.10;;;9.70;;
15230;SDS011;32569;51.762;8.564;2023-07-22T02:55:18;11.37;;;9.90;;
15230;SDS011;32569;51.762;8.564;2023-07-22T02:57:45;11.47;;;9.63;;
15230;SDS011;32569;51.762;8.564;2023-07-22T03:00:13;12.80;;;8.97;;
15230;SDS011;32569;51.762;8.564;2023-07-22T03:02:48;15.43;;;10.00;;
15230;SDS011;32569;51.762;8.564;2023-07-22T03:05:16;11.17;;;9.47;;
15230;SDS011;32569;51.762;8.564;2023-07-22T03:07:44;11.93;;;9.20;;
15230;SDS011;32569;51.762;8.564;2023-07-22T03:10:11;10.67;;;8.73;;
15230;SDS011;32569;51.762;8.564;2023-07-22T03:12:38;10.37;;;8.60;;
15230;SDS011;32569;51.762;8.564;2023-07-22T03:15:05;12.83;;;9.43;;
15230;SDS011;32569;51.762;8.564;2023-07-22T03:17:33;9.93;;;8.60;;
15230;SDS011;32569;51.762;8.564;2023-07-22T03:20:01;11.63;;;9.27;;
15230;SDS011;32569;51.762;8.564;2023-07-22T03:22:31;11.47;;;9.07;;
15230;SDS011;32569;51.762;8.564;2023-07-22T03:24:59;15.00;;;9.60;;
15230;SDS011;32569;51.762;8.564;2023-07-22T03:27:25;11.27;;;8.97;;
15230;SDS011;32569;51.762;8.564;2023-07-22T03:29:52;13.87;;;9.37;;
15230;SDS011;32569;51.762;8.564;2023-07-22T03:32:19;12.43;;;9.17;;
15230;SDS011;32569;51.762;8.564;2023-07-22T03:34:45;10.33;;;8.77;;
15230;SDS011;32569;51.762;8.564;2023-07-22T03:37:12;10.13;;;8.70;;
15230;SDS011;32569;51.762;8.564;2023-07-22T03:39:39;12.23;;;9.27;;
15230;SDS011;32569;51.762;8.564;2023-07-22T03:42:07;10.53;;;8.93;;
15230;SDS011;32569;51.762;8.564;2023-07-22T03:44:34;10.77;;;8.37;;
15230;SDS011;32569;51.762;8.564;2023-07-22T03:47:01;13.30;;;9.63;;
15230;SDS011;32569;51.762;8.564;2023-07-22T03:49:27;13.33;;;8.77;;
15230;SDS011;32569;51.762;8.564;2023-07-22T03:51:54;10.63;;;8.83;;
15230;SDS011;32569;51.762;8.564;2023-07-22T03:54:21;9.33;;;8.00;;
15230;SDS011;32569;51.762;8.564;2023-07-22T03:56:48;11.20;;;9.27;;
15230;SDS011;32569;51.762;8.564;2023-07-22T03:59:16;11.97;;;8.93;;
15230;SDS011;32569;51.762;8.564;2023-07-22T04:01:42;13.17;;;9.30;;
15230;SDS011;32569;51.762;8.564;2023-07-22T04:04:09;11.40;;;8.90;;
15230;SDS011;32569;51.762;8.564;2023-07-22T04:06:36;10.47;;;8.57;;
15230;SDS011;32569;51.762;8.564;2023-07-22T04:09:02;10.10;;;8.73;;
15230;SDS011;32569;51.762;8.564;2023-07-22T04:11:29;11.43;;;8.73;;
15230;SDS011;32569;51.762;8.564;2023-07-22T04:13:56;10.07;;;8.23;;
15230;SDS011;32569;51.762;8.564;2023-07-22T04:16:24;13.77;;;9.57;;
15230;SDS011;32569;51.762;8.564;2023-07-22T04:18:51;10.47;;;9.03;;
15230;SDS011;32569;51.762;8.564;2023-07-22T04:21:17;13.17;;;9.30;;
15230;SDS011;32569;51.762;8.564;2023-07-22T04:23:44;11.20;;;9.20;;
15230;SDS011;32569;51.762;8.564;2023-07-22T04:26:11;11.63;;;9.30;;
15230;SDS011;32569;51.762;8.564;2023-07-22T04:28:37;11.47;;;9.03;;
15230;SDS011;32569;51.762;8.564;2023-07-22T04:31:04;12.20;;;10.17;;
15230;SDS011;32569;51.762;8.564;2023-07-22T04:33:33;13.03;;;9.17;;
15230;SDS011;32569;51.762;8.564;2023-07-22T04:35:59;10.03;;;8.70;;
15230;SDS011;32569;51.762;8.564;2023-07-22T04:38:26;11.93;;;9.40;;
15230;SDS011;32569;51.762;8.564;2023-07-22T04:40:53;12.77;;;9.00;;
15230;SDS011;32569;51.762;8.564;2023-07-22T04:43:20;12.50;;;9.37;;
15230;SDS011;32569;51.762;8.564;2023-07-22T04:45:46;13.73;;;9.43;;
15230;SDS011;32569;51.762;8.564;2023-07-22T04:48:14;14.70;;;10.10;;
15230;SDS011;32569;51.762;8.564;2023-07-22T04:50:43;10.93;;;8.97;;
15230;SDS011;32569;51.762;8.564;2023-07-22T04:53:10;12.77;;;9.57;;
15230;SDS011;32569;51.762;8.564;2023-07-22T04:55:39;11.57;;;9.73;;
15230;SDS011;32569;51.762;8.564;2023-07-22T04:58:05;10.80;;;9.33;;
15230;SDS011;32569;51.762;8.564;2023-07-22T05:00:33;15.27;;;9.40;;
15230;SDS011;32569;51.762;8.564;2023-07-22T05:03:00;12.67;;;10.70;;
15230;SDS011;32569;51.762;8.564;2023-07-22T05:05:26;14.73;;;9.87;;
15230;SDS011;32569;51.762;8.564;2023-07-22T05:07:54;13.23;;;9.70;;
15230;SDS011;32569;51.762;8.564;2023-07-22T05:10:22;13.07;;;9.97;;
15230;SDS011;32569;51.762;8.564;2023-07-22T05:12:48;11.57;;;10.13;;
15230;SDS011;32569;51.762;8.564;2023-07-22T05:15:15;13.33;;;10.00;;
15230;SDS011;32569;51.762;8.564;2023-07-22T05:17:42;13.43;;;10.77;;
15230;SDS011;32569;51.762;8.564;2023-07-22T05:20:09;12.17;;;10.10;;
15230;SDS011;32569;51.762;8.564;2023-07-22T05:22:37;14.40;;;10.63;;
15230;SDS011;32569;51.762;8.564;2023-07-22T05:25:06;13.80;;;10.43;;
15230;SDS011;32569;51.762;8.564;2023-07-22T05:27:34;13.50;;;10.70;;
15230;SDS011;32569;51.762;8.564;2023-07-22T05:30:01;12.97;;;10.43;;
15230;SDS011;32569;51.762;8.564;2023-07-22T05:32:28;12.83;;;10.77;;
15230;SDS011;32569;51.762;8.564;2023-07-22T05:34:55;12.87;;;10.27;;
15230;SDS011;32569;51.762;8.564;2023-07-22T05:37:22;13.77;;;10.33;;
15230;SDS011;32569;51.762;8.564;2023-07-22T05:39:49;13.33;;;11.17;;
15230;SDS011;32569;51.762;8.564;2023-07-22T05:42:18;13.23;;;11.00;;
15230;SDS011;32569;51.762;8.564;2023-07-22T05:44:44;13.07;;;11.23;;
15230;SDS011;32569;51.762;8.564;2023-07-22T05:47:12;12.63;;;11.17;;
15230;SDS011;32569;51.762;8.564;2023-07-22T05:49:39;15.80;;;11.57;;
15230;SDS011;32569;51.762;8.564;2023-07-22T05:52:06;11.87;;;10.50;;
15230;SDS011;32569;51.762;8.564;2023-07-22T05:54:33;13.97;;;10.03;;
15230;SDS011;32569;51.762;8.564;2023-07-22T05:57:00;14.53;;;10.67;;
15230;SDS011;32569;51.762;8.564;2023-07-22T05:59:30;13.53;;;10.60;;
15230;SDS011;32569;51.762;8.564;2023-07-22T06:01:56;11.77;;;10.27;;
15230;SDS011;32569;51.762;8.564;2023-07-22T06:04:23;12.87;;;9.77;;
15230;SDS011;32569;51.762;8.564;2023-07-22T06:06:50;15.73;;;10.67;;
15230;SDS011;32569;51.762;8.564;2023-07-22T06:09:17;12.00;;;10.37;;
15230;SDS011;32569;51.762;8.564;2023-07-22T06:11:45;13.17;;;11.70;;
15230;SDS011;32569;51.762;8.564;2023-07-22T06:14:11;12.57;;;10.70;;
15230;SDS011;32569;51.762;8.564;2023-07-22T06:16:39;13.43;;;10.70;;
15230;SDS011;32569;51.762;8.564;2023-07-22T06:19:06;12.37;;;10.67;;
15230;SDS011;32569;51.762;8.564;2023-07-22T06:21:33;12.57;;;10.50;;
15230;SDS011;32569;51.762;8.564;2023-07-22T06:23:59;12.43;;;10.47;;
15230;SDS011;32569;51.762;8.564;2023-07-22T06:26:26;12.30;;;10.57;;
15230;SDS011;32569;51.762;8.564;2023-07-22T06:28:53;12.63;;;10.80;;
15230;SDS011;32569;51.762;8.564;2023-07-22T06:31:19;13.17;;;10.70;;
15230;SDS011;32569;51.762;8.564;2023-07-22T06:33:47;14.77;;;10.60;;
15230;SDS011;32569;51.762;8.564;2023-07-22T06:36:14;16.07;;;11.03;;
15230;SDS011;32569;51.762;8.564;2023-07-22T06:38:42;14.00;;;11.10;;
15230;SDS011;32569;51.762;8.564;2023-07-22T06:41:09;13.20;;;11.20;;
15230;SDS011;32569;51.762;8.564;2023-07-22T06:43:36;13.27;;;10.43;;
15230;SDS011;32569;51.762;8.564;2023-07-22T06:46:03;14.80;;;10.63;;
15230;SDS011;32569;51.762;8.564;2023-07-22T06:48:29;12.57;;;10.27;;
15230;SDS011;32569;51.762;8.564;2023-07-22T06:50:57;12.70;;;9.87;;
15230;SDS011;32569;51.762;8.564;2023-07-22T06:53:24;12.67;;;10.30;;
15230;SDS011;32569;51.762;8.564;2023-07-22T06:55:51;12.07;;;10.50;;
15230;SDS011;32569;51.762;8.564;2023-07-22T06:58:18;11.93;;;10.50;;
15230;SDS011;32569;51.762;8.564;2023-07-22T07:00:47;11.37;;;10.17;;
15230;SDS011;32569;51.762;8.564;2023-07-22T07:03:14;11.77;;;10.27;;
15230;SDS011;32569;51.762;8.564;2023-07-22T07:05:40;14.17;;;11.60;;
15230;SDS011;32569;51.762;8.564;2023-07-22T07:08:09;14.63;;;10.73;;
15230;SDS011;32569;51.762;8.564;2023-07-22T07:10:36;11.87;;;10.60;;
15230;SDS011;32569;51.762;8.564;2023-07-22T07:13:04;12.03;;;9.90;;
15230;SDS011;32569;51.762;8.564;2023-07-22T07:15:31;13.73;;;11.60;;
15230;SDS011;32569;51.762;8.564;2023-07-22T07:17:57;13.93;;;9.93;;
15230;SDS011;32569;51.762;8.564;2023-07-22T07:20:26;13.90;;;11.00;;
15230;SDS011;32569;51.762;8.564;2023-07-22T07:22:56;15.57;;;11.60;;
15230;SDS011;32569;51.762;8.564;2023-07-22T07:25:24;13.87;;;11.00;;
15230;SDS011;32569;51.762;8.564;2023-07-22T07:27:51;15.23;;;10.77;;
15230;SDS011;32569;51.762;8.564;2023-07-22T07:30:18;13.97;;;10.37;;
15230;SDS011;32569;51.762;8.564;2023-07-22T07:32:45;13.70;;;10.80;;
15230;SDS011;32569;51.762;8.564;2023-07-22T07:35:12;12.53;;;10.63;;
15230;SDS011;32569;51.762;8.564;2023-07-22T07:37:38;12.57;;;10.33;;
15230;SDS011;32569;51.762;8.564;2023-07-22T07:40:05;12.50;;;10.60;;
15230;SDS011;32569;51.762;8.564;2023-07-22T07:42:34;15.47;;;13.13;;
15230;SDS011;32569;51.762;8.564;2023-07-22T07:45:01;15.73;;;14.07;;
15230;SDS011;32569;51.762;8.564;2023-07-22T07:47:28;14.80;;;11.70;;
15230;SDS011;32569;51.762;8.564;2023-07-22T07:49:55;14.80;;;13.20;;
15230;SDS011;32569;51.762;8.564;2023-07-22T07:52:22;12.20;;;10.70;;
15230;SDS011;32569;51.762;8.564;2023-07-22T07:54:49;15.93;;;12.60;;
15230;SDS011;32569;51.762;8.564;2023-07-22T07:57:16;13.33;;;11.37;;
15230;SDS011;32569;51.762;8.564;2023-07-22T07:59:44;12.30;;;10.90;;
15230;SDS011;32569;51.762;8.564;2023-07-22T08:02:11;11.77;;;9.97;;
15230;SDS011;32569;51.762;8.564;2023-07-22T08:04:38;14.13;;;11.80;;
15230;SDS011;32569;51.762;8.564;2023-07-22T08:07:05;14.43;;;11.63;;
15230;SDS011;32569;51.762;8.564;2023-07-22T08:09:32;11.73;;;9.90;;
15230;SDS011;32569;51.762;8.564;2023-07-22T08:11:59;14.27;;;11.50;;
15230;SDS011;32569;51.762;8.564;2023-07-22T08:14:28;14.67;;;12.20;;
15230;SDS011;32569;51.762;8.564;2023-07-22T08:16:56;13.60;;;11.37;;
15230;SDS011;32569;51.762;8.564;2023-07-22T08:19:23;11.80;;;10.60;;
15230;SDS011;32569;51.762;8.564;2023-07-22T08:21:50;11.87;;;10.60;;
15230;SDS011;32569;51.762;8.564;2023-07-22T08:24:17;12.57;;;11.27;;
15230;SDS011;32569;51.762;8.564;2023-07-22T08:26:44;11.27;;;9.73;;
15230;SDS011;32569;51.762;8.564;2023-07-22T08:29:10;10.40;;;9.30;;
15230;SDS011;32569;51.762;8.564;2023-07-22T08:31:37;12.10;;;10.07;;
15230;SDS011;32569;51.762;8.564;2023-07-22T08:34:05;13.97;;;9.50;;
15230;SDS011;32569;51.762;8.564;2023-07-22T08:36:32;11.97;;;9.57;;
15230;SDS011;32569;51.762;8.564;2023-07-22T08:38:59;9.93;;;8.67;;
15230;SDS011;32569;51.762;8.564;2023-07-22T08:41:25;11.63;;;9.03;;
15230;SDS011;32569;51.762;8.564;2023-07-22T08:43:53;9.90;;;8.90;;
15230;SDS011;32569;51.762;8.564;2023-07-22T08:46:20;10.63;;;9.23;;
15230;SDS011;32569;51.762;8.564;2023-07-22T08:48:51;10.03;;;8.43;;
15230;SDS011;32569;51.762;8.564;2023-07-22T08:51:21;10.90;;;8.80;;
15230;SDS011;32569;51.762;8.564;2023-07-22T08:53:49;10.10;;;8.77;;
15230;SDS011;32569;51.762;8.564;2023-07-22T08:56:17;13.07;;;9.33;;
15230;SDS011;32569;51.762;8.564;2023-07-22T08:58:45;11.10;;;9.30;;
15230;SDS011;32569;51.762;8.564;2023-07-22T09:01:13;10.40;;;9.10;;
15230;SDS011;32569;51.762;8.564;2023-07-22T09:03:40;12.13;;;8.57;;
15230;SDS011;32569;51.762;8.564;2023-07-22T09:06:08;11.30;;;9.00;;
15230;SDS011;32569;51.762;8.564;2023-07-22T09:08:36;10.20;;;9.10;;
15230;SDS011;32569;51.762;8.564;2023-07-22T09:11:04;10.73;;;9.03;;
15230;SDS011;32569;51.762;8.564;2023-07-22T09:13:32;11.20;;;8.77;;
15230;SDS011;32569;51.762;8.564;2023-07-22T09:16:02;8.93;;;8.03;;
15230;SDS011;32569;51.762;8.564;2023-07-22T09:18:29;8.90;;;8.00;;
15230;SDS011;32569;51.762;8.564;2023-07-22T09:20:58;8.93;;;7.80;;
15230;SDS011;32569;51.762;8.564;2023-07-22T09:23:31;9.07;;;8.13;;
15230;SDS011;32569;51.762;8.564;2023-07-22T09:26:09;10.70;;;8.73;;
15230;SDS011;32569;51.762;8.564;2023-07-22T09:28:49;14.77;;;9.53;;
15230;SDS011;32569;51.762;8.564;2023-07-22T09:31:17;10.37;;;7.77;;
15230;SDS011;32569;51.762;8.564;2023-07-22T09:33:44;9.67;;;8.37;;
15230;SDS011;32569;51.762;8.564;2023-07-22T09:36:11;9.50;;;8.30;;
15230;SDS011;32569;51.762;8.564;2023-07-22T09:38:38;11.33;;;8.73;;
15230;SDS011;32569;51.762;8.564;2023-07-22T09:41:05;9.90;;;8.33;;
15230;SDS011;32569;51.762;8.564;2023-07-22T09:43:37;10.57;;;7.70;;
15230;SDS011;32569;51.762;8.564;2023-07-22T09:46:08;8.87;;;7.97;;
15230;SDS011;32569;51.762;8.564;2023-07-22T09:48:39;12.60;;;8.40;;
15230;SDS011;32569;51.762;8.564;2023-07-22T09:51:11;9.00;;;8.10;;
15230;SDS011;32569;51.762;8.564;2023-07-22T09:53:43;9.73;;;8.73;;
15230;SDS011;32569;51.762;8.564;2023-07-22T09:56:10;9.97;;;8.07;;
15230;SDS011;32569;51.762;8.564;2023-07-22T09:58:40;10.57;;;8.07;;
15230;SDS011;32569;51.762;8.564;2023-07-22T10:01:07;8.13;;;7.20;;
15230;SDS011;32569;51.762;8.564;2023-07-22T10:03:34;8.93;;;8.03;;
15230;SDS011;32569;51.762;8.564;2023-07-22T10:06:04;10.03;;;7.20;;
15230;SDS011;32569;51.762;8.564;2023-07-22T10:08:32;10.93;;;8.00;;
15230;SDS011;32569;51.762;8.564;2023-07-22T10:11:01;7.63;;;6.93;;
15230;SDS011;32569;51.762;8.564;2023-07-22T10:13:31;8.37;;;7.23;;
15230;SDS011;32569;51.762;8.564;2023-07-22T10:16:00;7.97;;;7.13;;
15230;SDS011;32569;51.762;8.564;2023-07-22T10:18:27;7.77;;;6.93;;
15230;SDS011;32569;51.762;8.564;2023-07-22T10:20:56;7.67;;;6.87;;
15230;SDS011;32569;51.762;8.564;2023-07-22T10:23:25;8.03;;;7.23;;
15230;SDS011;32569;51.762;8.564;2023-07-22T10:25:52;8.90;;;7.67;;
15230;SDS011;32569;51.762;8.564;2023-07-22T10:28:21;8.57;;;7.67;;
15230;SDS011;32569;51.762;8.564;2023-07-22T10:30:48;8.07;;;6.90;;
15230;SDS011;32569;51.762;8.564;2023-07-22T10:33:17;9.00;;;7.57;;
15230;SDS011;32569;51.762;8.564;2023-07-22T10:35:46;8.03;;;7.23;;
15230;SDS011;32569;51.762;8.564;2023-07-22T10:38:29;10.37;;;7.97;;
15230;SDS011;32569;51.762;8.564;2023-07-22T10:40:57;7.17;;;6.47;;
15230;SDS011;32569;51.762;8.564;2023-07-22T10:43:24;8.50;;;6.77;;
15230;SDS011;32569;51.762;8.564;2023-07-22T10:45:53;8.73;;;6.37;;
15230;SDS011;32569;51.762;8.564;2023-07-22T10:48:23;7.93;;;7.10;;
15230;SDS011;32569;51.762;8.564;2023-07-22T10:50:54;8.50;;;7.60;;
15230;SDS011;32569;51.762;8.564;2023-07-22T10:53:28;6.33;;;5.70;;
15230;SDS011;32569;51.762;8.564;2023-07-22T10:56:02;7.00;;;6.30;;
15230;SDS011;32569;51.762;8.564;2023-07-22T10:58:35;7.17;;;6.47;;
15230;SDS011;32569;51.762;8.564;2023-07-22T11:01:30;6.73;;;6.03;;
15230;SDS011;32569;51.762;8.564;2023-07-22T11:04:04;6.70;;;6.10;;
15230;SDS011;32569;51.762;8.564;2023-07-22T11:06:36;7.53;;;6.40;;
15230;SDS011;32569;51.762;8.564;2023-07-22T11:09:04;6.07;;;5.47;;
15230;SDS011;32569;51.762;8.564;2023-07-22T11:11:37;5.77;;;5.20;;
15230;SDS011;32569;51.762;8.564;2023-07-22T11:14:15;6.63;;;5.13;;
15230;SDS011;32569;51.762;8.564;2023-07-22T11:16:44;6.67;;;5.67;;
15230;SDS011;32569;51.762;8.564;2023-07-22T11:19:17;6.10;;;5.53;;
15230;SDS011;32569;51.762;8.564;2023-07-22T11:21:47;6.17;;;5.57;;
15230;SDS011;32569;51.762;8.564;2023-07-22T11:24:14;5.47;;;4.70;;
15230;SDS011;32569;51.762;8.564;2023-07-22T11:26:41;5.87;;;5.37;;
15230;SDS011;32569;51.762;8.564;2023-07-22T11:29:09;6.30;;;5.70;;
15230;SDS011;32569;51.762;8.564;2023-07-22T11:31:36;6.33;;;5.70;;
15230;SDS011;32569;51.762;8.564;2023-07-22T11:34:07;5.90;;;5.30;;
15230;SDS011;32569;51.762;8.564;2023-07-22T11:36:35;5.43;;;4.93;;
15230;SDS011;32569;51.762;8.564;2023-07-22T11:39:02;5.47;;;4.97;;
15230;SDS011;32569;51.762;8.564;2023-07-22T11:41:30;5.97;;;5.33;;
15230;SDS011;32569;51.762;8.564;2023-07-22T11:43:58;5.43;;;4.90;;
15230;SDS011;32569;51.762;8.564;2023-07-22T11:46:26;5.23;;;4.73;;
15230;SDS011;32569;51.762;8.564;2023-07-22T11:48:54;5.10;;;4.67;;
15230;SDS011;32569;51.762;8.564;2023-07-22T11:51:22;6.07;;;4.60;;
15230;SDS011;32569;51.762;8.564;2023-07-22T11:53:51;4.77;;;4.37;;
15230;SDS011;32569;51.762;8.564;2023-07-22T11:56:20;6.67;;;4.90;;
15230;SDS011;32569;51.762;8.564;2023-07-22T11:58:51;6.50;;;4.50;;
15230;SDS011;32569;51.762;8.564;2023-07-22T12:01:19;4.40;;;3.93;;
15230;SDS011;32569;51.762;8.564;2023-07-22T12:03:46;5.37;;;4.60;;
15230;SDS011;32569;51.762;8.564;2023-07-22T12:06:13;4.70;;;4.30;;
15230;SDS011;32569;51.762;8.564;2023-07-22T12:08:44;5.67;;;4.80;;
15230;SDS011;32569;51.762;8.564;2023-07-22T12:11:17;5.67;;;4.77;;
15230;SDS011;32569;51.762;8.564;2023-07-22T12:13:44;5.80;;;5.23;;
15230;SDS011;32569;51.762;8.564;2023-07-22T12:16:20;5.23;;;4.80;;
15230;SDS011;32569;51.762;8.564;2023-07-22T12:18:47;5.20;;;4.80;;
15230;SDS011;32569;51.762;8.564;2023-07-22T12:21:14;5.47;;;4.97;;
15230;SDS011;32569;51.762;8.564;2023-07-22T12:23:41;5.40;;;4.37;;
15230;SDS011;32569;51.762;8.564;2023-07-22T12:26:08;5.27;;;4.50;;
15230;SDS011;32569;51.762;8.564;2023-07-22T12:28:36;5.40;;;5.00;;
15230;SDS011;32569;51.762;8.564;2023-07-22T12:31:03;5.20;;;4.70;;
15230;SDS011;32569;51.762;8.564;2023-07-22T12:33:30;5.00;;;4.60;;
15230;SDS011;32569;51.762;8.564;2023-07-22T12:35:57;5.03;;;4.63;;
15230;SDS011;32569;51.762;8.564;2023-07-22T12:38:24;5.23;;;4.73;;
15230;SDS011;32569;51.762;8.564;2023-07-22T12:40:50;5.27;;;4.77;;
15230;SDS011;32569;51.762;8.564;2023-07-22T12:43:17;5.47;;;4.97;;
15230;SDS011;32569;51.762;8.564;2023-07-22T12:45:45;5.67;;;5.03;;
15230;SDS011;32569;51.762;8.564;2023-07-22T12:48:12;5.00;;;4.60;;
15230;SDS011;32569;51.762;8.564;2023-07-22T12:50:38;5.90;;;4.83;;
15230;SDS011;32569;51.762;8.564;2023-07-22T12:53:05;5.40;;;4.87;;
15230;SDS011;32569;51.762;8.564;2023-07-22T12:55:32;4.70;;;4.30;;
15230;SDS011;32569;51.762;8.564;2023-07-22T12:57:59;4.63;;;4.23;;
15230;SDS011;32569;51.762;8.564;2023-07-22T13:00:25;5.40;;;4.87;;
15230;SDS011;32569;51.762;8.564;2023-07-22T13:02:54;4.57;;;4.23;;
15230;SDS011;32569;51.762;8.564;2023-07-22T13:05:22;4.93;;;4.43;;
15230;SDS011;32569;51.762;8.564;2023-07-22T13:07:49;5.00;;;4.30;;
15230;SDS011;32569;51.762;8.564;2023-07-22T13:10:15;4.37;;;3.97;;
15230;SDS011;32569;51.762;8.564;2023-07-22T13:12:45;4.40;;;3.90;;
15230;SDS011;32569;51.762;8.564;2023-07-22T13:15:11;4.33;;;3.93;;
15230;SDS011;32569;51.762;8.564;2023-07-22T13:17:38;5.20;;;4.70;;
15230;SDS011;32569;51.762;8.564;2023-07-22T13:20:07;8.37;;;6.77;;
15230;SDS011;32569;51.762;8.564;2023-07-22T13:22:34;4.60;;;4.30;;
15230;SDS011;32569;51.762;8.564;2023-07-22T13:25:01;6.00;;;4.17;;
15230;SDS011;32569;51.762;8.564;2023-07-22T13:27:30;4.83;;;4.43;;
15230;SDS011;32569;51.762;8.564;2023-07-22T13:29:56;4.53;;;4.10;;
15230;SDS011;32569;51.762;8.564;2023-07-22T13:32:23;4.93;;;4.43;;
15230;SDS011;32569;51.762;8.564;2023-07-22T13:34:50;4.80;;;4.40;;
15230;SDS011;32569;51.762;8.564;2023-07-22T13:37:18;4.60;;;4.10;;
15230;SDS011;32569;51.762;8.564;2023-07-22T13:39:45;5.10;;;4.50;;
15230;SDS011;32569;51.762;8.564;2023-07-22T13:42:12;4.80;;;4.40;;
15230;SDS011;32569;51.762;8.564;2023-07-22T13:44:38;4.50;;;4.10;;
15230;SDS011;32569;51.762;8.564;2023-07-22T13:47:05;5.27;;;4.77;;
15230;SDS011;32569;51.762;8.564;2023-07-22T13:49:32;4.93;;;3.73;;
15230;SDS011;32569;51.762;8.564;2023-07-22T13:51:59;5.23;;;4.70;;
15230;SDS011;32569;51.762;8.564;2023-07-22T13:54:27;4.50;;;4.10;;
15230;SDS011;32569;51.762;8.564;2023-07-22T13:56:54;4.80;;;4.17;;
15230;SDS011;32569;51.762;8.564;2023-07-22T13:59:20;5.93;;;3.83;;
15230;SDS011;32569;51.762;8.564;2023-07-22T14:01:47;4.33;;;3.93;;
15230;SDS011;32569;51.762;8.564;2023-07-22T14:04:16;5.03;;;3.97;;
15230;SDS011;32569;51.762;8.564;2023-07-22T14:06:43;4.73;;;4.00;;
15230;SDS011;32569;51.762;8.564;2023-07-22T14:09:10;4.03;;;3.73;;
15230;SDS011;32569;51.762;8.564;2023-07-22T14:11:38;4.20;;;3.80;;
15230;SDS011;32569;51.762;8.564;2023-07-22T14:14:05;4.17;;;3.73;;
15230;SDS011;32569;51.762;8.564;2023-07-22T14:16:31;4.13;;;3.83;;
15230;SDS011;32569;51.762;8.564;2023-07-22T14:18:58;4.53;;;4.13;;
15230;SDS011;32569;51.762;8.564;2023-07-22T14:21:25;4.47;;;3.90;;
15230;SDS011;32569;51.762;8.564;2023-07-22T14:23:52;4.20;;;3.80;;
15230;SDS011;32569;51.762;8.564;2023-07-22T14:26:19;5.93;;;4.17;;
15230;SDS011;32569;51.762;8.564;2023-07-22T14:28:48;4.30;;;3.90;;
15230;SDS011;32569;51.762;8.564;2023-07-22T14:31:14;4.30;;;3.90;;
15230;SDS011;32569;51.762;8.564;2023-07-22T14:33:41;4.00;;;3.43;;
15230;SDS011;32569;51.762;8.564;2023-07-22T14:36:08;4.50;;;3.93;;